Северо-западная Россия

РегЦ Санкт-Петербург

Региональный Центр Единой Системы Организации Воздушного Движения (РегЦ ЕС ОрВД) Санкт-Петербург является структурным подразделением VATRUS.

В зону ответственности центра в сети VATSIM входит воздушное пространство над территориями Ленинградской, Новгородской, Псковской, Вологодской области, Мурманской, Архангельской областями, а так же Республики Карелия и Коми, Ненецкого АО.

Лого Северо-западная Россия
Контакты

FSS региона
Обозначение
RU-NWC_FSS
Позывной
Северо-Запад Контроль
Частота
135.620
Примечание
Top-down
Инструкторы региона
Akhmadjon Saidov (Instructor)
Aleksandr Ovodenko * (Controller)
Alexandr Vaganov (Instructor)
Alexey Kaznakov (Instructor)
Dmitry Bugaychuk (Instructor)
Ekaterina Romanova (Instructor)
Maksim Otto (Instructor)
Maxim Demidov * (Controller)
Nikita Assorov * (Unknown)
Oleg Alov * (Controller)
Stanley Yorke * (Controller)
Vadim Drachev (Instructor)
Viktor Ivanov (Instructor)
Yury Koryagin (Instructor)
Включает в себя

РПИ Калининград
РПИ Санкт-Петербург

Диспетчеры региона

Диспетчер Рейтинг Допуски *
Akhmadjon Saidov Instructor ULLL_CTR
Aleksandr Manko Controller ULLL_CTR
Aleksandr Ovodenko Controller ULLL_CTR , UMKK_CTR
Alexandr Vaganov Instructor ULLL_CTR
Alexey Dobronravov Instructor UMKK_CTR
Alexey Zimin Senior Controller ULLL_CTR
Dmitry Bugaychuk Instructor ULLL_CTR , UMKK_CTR
Ekaterina Romanova Instructor ULLL_CTR , UMKK_CTR
Maksim Otto Instructor ULLL_CTR , UMKK_CTR
Maxim Demidov Controller ULLL_CTR
Mihail Kolesnik Unknown ULLL_CTR
Mikhail Satsik Controller ULLL_CTR , ULLL_2_APP, ULLL_1_APP, ULLL_APP
Nikita Assorov Instructor UMKK_CTR
Nikita Voytko Controller ULLL_CTR
Oleg Alov Controller ULLL_CTR , UMKK_CTR
Robert Farber Controller ULLL_CTR
Serafim Bedershtet Controller ULLL_CTR
Stanley Yorke Controller ULLL_CTR , UMKK_CTR
Vadim Drachev Instructor ULLL_CTR
Viktor Ivanov Instructor ULLL_CTR , UMKK_CTR
Vladimir Anisimov Senior Controller ULLL_CTR
Yan Stetsenko Controller ULLL_CTR
Aleksandr Mirtov Student 2 ULLI_TWR, ULLI_1_TWR, ULMM_TWR, ULLI_3_TWR, ULLI_2_TWR, UMKK_TWR
Alexander Mikhin Instructor ULLI_2_TWR, ULLI_TWR, ULLI_1_TWR, ULLI_3_TWR
Alexandr Sosnovsky Senior Student ULAA_APP, ULLL_APP, ULLL_2_APP, ULLL_1_APP
Andrey Kashunin Student ULLI_GND
Andrey Mironov Student 2 ULMM_TWR, ULLI_TWR, ULLI_3_TWR, ULLI_2_TWR, ULLI_1_TWR
Andrey Tarasov Senior Student ULLI_TWR, ULLI_1_TWR, ULLI_2_TWR, ULLI_3_TWR
Andrey Volanskiy Student 2 ULLI_3_TWR, ULLI_2_TWR, ULLI_1_TWR, ULLI_TWR
Arseny Sitnikov Student 2 ULLI_2_TWR, ULLI_TWR, ULLI_3_TWR, ULLI_1_TWR
Artem Badalov Senior Student ULLL_2_APP, ULLL_1_APP, ULLL_APP
Artur Mitskus Student 2 ULLI_GND, UMKK_TWR
Daniil Deev Student ULLI_3_TWR*, ULLI_GND, ULLI_1_TWR*, ULLI_TWR*, ULLI_2_TWR*
Daniil Dolgikh Student ULLI_GND
David Markarian Student 2 ULLI_2_TWR, ULLI_3_TWR, ULLI_1_TWR, ULLI_TWR
Denis Zhmurenko Student 2 ULLI_3_TWR, ULLI_2_TWR, ULLI_TWR, ULLI_1_TWR
Dmitrii Ermakov Student 2 ULLI_1_TWR, ULLI_TWR, ULLI_2_TWR, ULLI_3_TWR
Dmitry Berezin Student 2 ULLI_1_TWR, ULLI_3_TWR, ULLI_TWR, ULLI_2_TWR
Evgeny Zuev Senior Student ULLI_GND
Grigoriy Novikov Student 2 ULLI_3_TWR, ULMM_TWR, ULLI_2_TWR, ULLI_1_TWR, ULLI_TWR, ULAA_TWR, UMKK_TWR
Ilya Bogdanov Student ULLI_GND
Ilya Uvarov Student UMKK_TWR*
Ivan Chumakov Student 2 ULLI_3_TWR, ULLI_TWR, ULLI_1_TWR, ULLI_2_TWR, UMKK_TWR
Makar Lyzhnik Student ULLI_GND, ULLI_TWR*, ULLI_1_TWR*, ULLI_2_TWR*, ULLI_3_TWR*
Nikita Ovsyannikov Student 2 UUYY_TWR!!!, ULMM_TWR, ULLI_3_TWR, ULLI_2_TWR, ULLI_1_TWR, ULLI_TWR, ULLI_R_APP*, UMKK_TWR
Nikita Smirnov Student ULLI_GND
Nikita Zikeev Senior Student UMKK_TWR
Pavel Gavrilov Senior Student ULLL_1_APP, ULMM_R_APP, ULLL_APP, ULLL_2_APP, UMKK_APP
Pavel Popov Student ULLI_GND
Pavel Romanov Student 2 ULLI_TWR, ULLI_1_TWR, ULLI_2_TWR, ULLI_3_TWR, ULAA_TWR
Pavel Sergienko Senior Student ULLI_R_APP
Sasha Klyucharev Student 2 ULLI_TWR, ULLI_1_TWR, ULLI_2_TWR, ULLI_3_TWR
Sofya Belyaeva Student 2 ULLI_1_TWR, ULLI_TWR, ULLI_2_TWR, ULLI_3_TWR
Vyacheslav Varlamov Student ULLI_GND
Yakov Polushkin Student 2 ULLI_3_TWR, ULLI_TWR, ULLI_1_TWR, ULLI_2_TWR, UMKK_TWR
Yan Sheyfer Senior Student ULLI_3_TWR, ULLI_TWR, ULLI_1_TWR, ULLI_2_TWR
Yury Pushkaryov Senior Student ULLL_APP, ULLL_1_APP, ULLL_2_APP, ULAA_APP

Аэропорты региона

ICAO Город Название Погода
ULLI Санкт-Петербург Пулково ULLI 240930Z 18005MPS 9999 BKN013 OVC036 04/01 Q1018 R88/190055 NOSIG
ULAA Архангельск Архангельск ULAA 240930Z 12005MPS 090V150 9999 -SHSNRA OVC009CB 02/02 Q1016 R08/910555 NOSIG RMK QFE760/1014
UMKK Калининград Калининград UMKK 240930Z 04005MPS CAVOK 07/02 Q1010 R24/CLRD95 NOSIG RMK QFE756/1009
ULKK Котлас Котлас
XLLV Левашово Левашово
ULMM Мурманск Мурманск ULMM 240930Z 03004MPS 9999 BKN029 07/00 Q1017 R13/290065 NOSIG RMK QFE756
ULAM Нарьян-Мар Нарьян-Мар
ULPB Петрозаводск Бесовец ULPB 240930Z 23005MPS 200V260 9999 SCT026 BKN040 04/M03 Q1018 R19/190073 NOSIG RMK QFE759/1013
ULOO Псков Псков ULOO 240930Z 16004MPS 140V200 9999 BKN038 06/M03 Q1017 R19/190051 NOSIG RMK QFE759
UUYY Сыктывкар Сыктывкар UUYY 240930Z 11005MPS 9999 -SNRA OVC011 OVC/// 01/M00 Q1019 R36/29//51 NOSIG RMK QFE755/1007
ULWC Череповец Череповец ULWC 240930Z 25002G07MPS 9999 OVC034 05/M03 Q1020 R21/010060 NOSIG RMK QFE755/1007